sensor_id;sensor_type;location;lat;lon;timestamp;temperature;humidity
52543;DHT22;38449;52.696;6.186;2023-10-09T00:00:16;13.80;99.90
52543;DHT22;38449;52.696;6.186;2023-10-09T00:02:57;13.80;99.90
52543;DHT22;38449;52.696;6.186;2023-10-09T00:05:27;13.90;99.90
52543;DHT22;38449;52.696;6.186;2023-10-09T00:08:05;13.80;99.90
52543;DHT22;38449;52.696;6.186;2023-10-09T00:10:34;13.80;99.90
52543;DHT22;38449;52.696;6.186;2023-10-09T00:13:11;13.80;99.90
52543;DHT22;38449;52.696;6.186;2023-10-09T00:15:38;13.80;99.90
52543;DHT22;38449;52.696;6.186;2023-10-09T00:18:05;13.80;99.90
52543;DHT22;38449;52.696;6.186;2023-10-09T00:20:38;13.80;99.90
52543;DHT22;38449;52.696;6.186;2023-10-09T00:23:11;13.80;99.90
52543;DHT22;38449;52.696;6.186;2023-10-09T00:25:53;13.80;99.90
52543;DHT22;38449;52.696;6.186;2023-10-09T00:28:49;13.80;99.90
52543;DHT22;38449;52.696;6.186;2023-10-09T00:31:20;13.80;99.90
52543;DHT22;38449;52.696;6.186;2023-10-09T00:33:54;13.80;99.90
52543;DHT22;38449;52.696;6.186;2023-10-09T00:36:20;13.90;99.90
52543;DHT22;38449;52.696;6.186;2023-10-09T00:38:54;13.90;99.90
52543;DHT22;38449;52.696;6.186;2023-10-09T00:41:20;13.90;99.90
52543;DHT22;38449;52.696;6.186;2023-10-09T00:43:51;13.90;99.90
52543;DHT22;38449;52.696;6.186;2023-10-09T00:46:21;13.90;99.90
52543;DHT22;38449;52.696;6.186;2023-10-09T00:48:49;13.90;99.90
52543;DHT22;38449;52.696;6.186;2023-10-09T00:51:16;13.90;99.90
52543;DHT22;38449;52.696;6.186;2023-10-09T00:53:48;13.90;99.90
52543;DHT22;38449;52.696;6.186;2023-10-09T00:56:21;13.90;99.90
52543;DHT22;38449;52.696;6.186;2023-10-09T00:58:53;13.90;99.90
52543;DHT22;38449;52.696;6.186;2023-10-09T01:01:26;13.80;99.90
52543;DHT22;38449;52.696;6.186;2023-10-09T01:04:03;13.80;99.90
52543;DHT22;38449;52.696;6.186;2023-10-09T01:06:42;13.80;99.90
52543;DHT22;38449;52.696;6.186;2023-10-09T01:09:13;13.90;99.90
52543;DHT22;38449;52.696;6.186;2023-10-09T01:11:43;13.80;99.90
52543;DHT22;38449;52.696;6.186;2023-10-09T01:14:25;13.80;99.90
52543;DHT22;38449;52.696;6.186;2023-10-09T01:16:51;13.80;99.90
52543;DHT22;38449;52.696;6.186;2023-10-09T01:19:21;13.80;99.90
52543;DHT22;38449;52.696;6.186;2023-10-09T01:21:51;13.80;99.90
52543;DHT22;38449;52.696;6.186;2023-10-09T01:24:17;13.90;99.90
52543;DHT22;38449;52.696;6.186;2023-10-09T01:26:46;13.90;99.90
52543;DHT22;38449;52.696;6.186;2023-10-09T01:29:18;13.90;99.90
52543;DHT22;38449;52.696;6.186;2023-10-09T01:31:56;13.90;99.90
52543;DHT22;38449;52.696;6.186;2023-10-09T01:34:28;13.90;99.90
52543;DHT22;38449;52.696;6.186;2023-10-09T01:37:22;13.90;99.90
52543;DHT22;38449;52.696;6.186;2023-10-09T01:39:53;13.90;99.90
52543;DHT22;38449;52.696;6.186;2023-10-09T01:42:24;13.90;99.90
52543;DHT22;38449;52.696;6.186;2023-10-09T01:44:56;13.90;99.90
52543;DHT22;38449;52.696;6.186;2023-10-09T01:47:36;13.90;99.90
52543;DHT22;38449;52.696;6.186;2023-10-09T01:50:05;13.90;99.90
52543;DHT22;38449;52.696;6.186;2023-10-09T01:52:36;13.90;99.90
52543;DHT22;38449;52.696;6.186;2023-10-09T01:55:03;14.00;99.90
52543;DHT22;38449;52.696;6.186;2023-10-09T01:57:35;14.10;99.90
52543;DHT22;38449;52.696;6.186;2023-10-09T02:00:06;14.00;99.90
52543;DHT22;38449;52.696;6.186;2023-10-09T02:02:33;14.10;99.90
52543;DHT22;38449;52.696;6.186;2023-10-09T02:05:03;14.00;99.90
52543;DHT22;38449;52.696;6.186;2023-10-09T02:07:39;14.10;99.90
52543;DHT22;38449;52.696;6.186;2023-10-09T02:10:27;14.10;99.90
52543;DHT22;38449;52.696;6.186;2023-10-09T02:13:06;14.10;99.90
52543;DHT22;38449;52.696;6.186;2023-10-09T02:15:40;14.10;99.90
52543;DHT22;38449;52.696;6.186;2023-10-09T02:18:26;14.10;99.90
52543;DHT22;38449;52.696;6.186;2023-10-09T02:23:26;14.10;99.90
52543;DHT22;38449;52.696;6.186;2023-10-09T02:26:05;14.10;99.90
52543;DHT22;38449;52.696;6.186;2023-10-09T02:28:32;14.10;99.90
52543;DHT22;38449;52.696;6.186;2023-10-09T02:31:00;14.20;99.90
52543;DHT22;38449;52.696;6.186;2023-10-09T02:33:36;14.20;99.90
52543;DHT22;38449;52.696;6.186;2023-10-09T02:36:03;14.30;99.90
52543;DHT22;38449;52.696;6.186;2023-10-09T02:38:34;14.20;99.90
52543;DHT22;38449;52.696;6.186;2023-10-09T02:41:06;14.30;99.90
52543;DHT22;38449;52.696;6.186;2023-10-09T02:43:34;14.30;99.90
52543;DHT22;38449;52.696;6.186;2023-10-09T02:46:11;14.40;99.90
52543;DHT22;38449;52.696;6.186;2023-10-09T02:48:44;14.30;99.90
52543;DHT22;38449;52.696;6.186;2023-10-09T02:51:20;14.30;99.90
52543;DHT22;38449;52.696;6.186;2023-10-09T02:53:57;14.30;99.90
52543;DHT22;38449;52.696;6.186;2023-10-09T02:56:25;14.30;99.90
52543;DHT22;38449;52.696;6.186;2023-10-09T02:59:07;14.40;99.90
52543;DHT22;38449;52.696;6.186;2023-10-09T03:01:34;14.40;99.90
52543;DHT22;38449;52.696;6.186;2023-10-09T03:04:04;14.50;99.90
52543;DHT22;38449;52.696;6.186;2023-10-09T03:06:32;14.50;99.90
52543;DHT22;38449;52.696;6.186;2023-10-09T03:09:01;14.60;99.90
52543;DHT22;38449;52.696;6.186;2023-10-09T03:11:47;14.60;99.90
52543;DHT22;38449;52.696;6.186;2023-10-09T03:14:14;14.60;99.90
52543;DHT22;38449;52.696;6.186;2023-10-09T03:16:43;14.70;99.90
52543;DHT22;38449;52.696;6.186;2023-10-09T03:19:09;14.70;99.90
52543;DHT22;38449;52.696;6.186;2023-10-09T03:21:36;14.70;99.90
52543;DHT22;38449;52.696;6.186;2023-10-09T03:24:03;14.70;99.90
52543;DHT22;38449;52.696;6.186;2023-10-09T03:26:32;14.80;99.90
52543;DHT22;38449;52.696;6.186;2023-10-09T03:28:58;14.70;99.90
52543;DHT22;38449;52.696;6.186;2023-10-09T03:31:33;14.70;99.90
52543;DHT22;38449;52.696;6.186;2023-10-09T03:34:00;14.80;99.90
52543;DHT22;38449;52.696;6.186;2023-10-09T03:36:26;14.70;99.90
52543;DHT22;38449;52.696;6.186;2023-10-09T03:38:53;14.90;99.90
52543;DHT22;38449;52.696;6.186;2023-10-09T03:41:24;14.90;99.90
52543;DHT22;38449;52.696;6.186;2023-10-09T03:43:55;14.80;99.90
52543;DHT22;38449;52.696;6.186;2023-10-09T03:46:21;14.90;99.90
52543;DHT22;38449;52.696;6.186;2023-10-09T03:48:52;15.00;99.90
52543;DHT22;38449;52.696;6.186;2023-10-09T03:51:19;15.00;99.90
52543;DHT22;38449;52.696;6.186;2023-10-09T03:53:51;15.10;99.90
52543;DHT22;38449;52.696;6.186;2023-10-09T03:56:19;15.10;99.90
52543;DHT22;38449;52.696;6.186;2023-10-09T03:58:48;15.20;99.90
52543;DHT22;38449;52.696;6.186;2023-10-09T04:01:17;15.20;99.90
52543;DHT22;38449;52.696;6.186;2023-10-09T04:03:50;15.30;99.90
52543;DHT22;38449;52.696;6.186;2023-10-09T04:06:30;15.40;99.90
52543;DHT22;38449;52.696;6.186;2023-10-09T04:09:09;15.40;99.90
52543;DHT22;38449;52.696;6.186;2023-10-09T04:11:45;15.40;99.90
52543;DHT22;38449;52.696;6.186;2023-10-09T04:14:13;15.50;99.90
52543;DHT22;38449;52.696;6.186;2023-10-09T04:16:52;15.50;99.90
52543;DHT22;38449;52.696;6.186;2023-10-09T04:19:18;15.60;99.90
52543;DHT22;38449;52.696;6.186;2023-10-09T04:21:48;15.60;99.90
52543;DHT22;38449;52.696;6.186;2023-10-09T04:24:14;15.60;99.90
52543;DHT22;38449;52.696;6.186;2023-10-09T04:26:42;15.70;99.90
52543;DHT22;38449;52.696;6.186;2023-10-09T04:29:11;15.60;99.90
52543;DHT22;38449;52.696;6.186;2023-10-09T04:31:47;15.70;99.90
52543;DHT22;38449;52.696;6.186;2023-10-09T04:34:18;15.70;99.90
52543;DHT22;38449;52.696;6.186;2023-10-09T04:36:49;15.70;99.90
52543;DHT22;38449;52.696;6.186;2023-10-09T04:39:16;15.70;99.90
52543;DHT22;38449;52.696;6.186;2023-10-09T04:42:02;15.80;99.90
52543;DHT22;38449;52.696;6.186;2023-10-09T04:44:47;15.80;99.90
52543;DHT22;38449;52.696;6.186;2023-10-09T04:47:45;15.80;99.90
52543;DHT22;38449;52.696;6.186;2023-10-09T04:50:24;15.90;99.90
52543;DHT22;38449;52.696;6.186;2023-10-09T04:52:57;15.90;99.90
52543;DHT22;38449;52.696;6.186;2023-10-09T04:55:40;16.00;99.90
52543;DHT22;38449;52.696;6.186;2023-10-09T04:58:11;15.90;99.90
52543;DHT22;38449;52.696;6.186;2023-10-09T05:00:50;15.90;99.90
52543;DHT22;38449;52.696;6.186;2023-10-09T05:03:30;16.00;99.90
52543;DHT22;38449;52.696;6.186;2023-10-09T05:06:19;16.00;99.90
52543;DHT22;38449;52.696;6.186;2023-10-09T05:09:04;16.10;99.90
52543;DHT22;38449;52.696;6.186;2023-10-09T05:11:40;16.00;99.90
52543;DHT22;38449;52.696;6.186;2023-10-09T05:14:19;16.00;99.90
52543;DHT22;38449;52.696;6.186;2023-10-09T05:16:54;16.10;99.90
52543;DHT22;38449;52.696;6.186;2023-10-09T05:19:21;16.20;99.90
52543;DHT22;38449;52.696;6.186;2023-10-09T05:22:09;16.10;99.90
52543;DHT22;38449;52.696;6.186;2023-10-09T05:24:45;16.20;99.90
52543;DHT22;38449;52.696;6.186;2023-10-09T05:27:13;16.20;99.90
52543;DHT22;38449;52.696;6.186;2023-10-09T05:29:50;16.30;99.90
52543;DHT22;38449;52.696;6.186;2023-10-09T05:32:25;16.30;99.90
52543;DHT22;38449;52.696;6.186;2023-10-09T05:35:01;16.40;99.90
52543;DHT22;38449;52.696;6.186;2023-10-09T05:37:31;16.40;99.90
52543;DHT22;38449;52.696;6.186;2023-10-09T05:40:09;16.30;99.90
52543;DHT22;38449;52.696;6.186;2023-10-09T05:42:42;16.40;99.90
52543;DHT22;38449;52.696;6.186;2023-10-09T05:45:11;16.40;99.90
52543;DHT22;38449;52.696;6.186;2023-10-09T05:47:47;16.40;99.90
52543;DHT22;38449;52.696;6.186;2023-10-09T05:50:24;16.40;99.90
52543;DHT22;38449;52.696;6.186;2023-10-09T05:52:51;16.40;99.90
52543;DHT22;38449;52.696;6.186;2023-10-09T05:55:21;16.50;99.90
52543;DHT22;38449;52.696;6.186;2023-10-09T05:57:51;16.40;99.90
52543;DHT22;38449;52.696;6.186;2023-10-09T06:00:36;16.50;99.90
52543;DHT22;38449;52.696;6.186;2023-10-09T06:03:21;16.50;99.90
52543;DHT22;38449;52.696;6.186;2023-10-09T06:05:53;16.50;99.90
52543;DHT22;38449;52.696;6.186;2023-10-09T06:08:20;16.50;99.90
52543;DHT22;38449;52.696;6.186;2023-10-09T06:11:05;16.50;99.90
52543;DHT22;38449;52.696;6.186;2023-10-09T06:13:50;16.50;99.90
52543;DHT22;38449;52.696;6.186;2023-10-09T06:16:29;16.60;99.90
52543;DHT22;38449;52.696;6.186;2023-10-09T06:19:12;16.60;99.90
52543;DHT22;38449;52.696;6.186;2023-10-09T06:21:39;16.60;99.90
52543;DHT22;38449;52.696;6.186;2023-10-09T06:24:08;16.60;99.90
52543;DHT22;38449;52.696;6.186;2023-10-09T06:26:44;16.60;99.90
52543;DHT22;38449;52.696;6.186;2023-10-09T06:29:29;16.50;99.90
52543;DHT22;38449;52.696;6.186;2023-10-09T06:32:06;16.60;99.90
52543;DHT22;38449;52.696;6.186;2023-10-09T06:34:49;16.50;99.90
52543;DHT22;38449;52.696;6.186;2023-10-09T06:37:22;16.50;99.90
52543;DHT22;38449;52.696;6.186;2023-10-09T06:39:52;16.70;99.90
52543;DHT22;38449;52.696;6.186;2023-10-09T06:42:25;16.60;99.90
52543;DHT22;38449;52.696;6.186;2023-10-09T06:45:11;16.60;99.90
52543;DHT22;38449;52.696;6.186;2023-10-09T06:47:41;16.60;99.90
52543;DHT22;38449;52.696;6.186;2023-10-09T06:50:11;16.70;99.90
52543;DHT22;38449;52.696;6.186;2023-10-09T06:52:50;16.60;99.90
52543;DHT22;38449;52.696;6.186;2023-10-09T06:55:38;16.70;99.90
52543;DHT22;38449;52.696;6.186;2023-10-09T06:58:18;16.70;99.90
52543;DHT22;38449;52.696;6.186;2023-10-09T07:00:56;16.60;99.90
52543;DHT22;38449;52.696;6.186;2023-10-09T07:03:28;16.70;99.90
52543;DHT22;38449;52.696;6.186;2023-10-09T07:06:07;16.60;99.90
52543;DHT22;38449;52.696;6.186;2023-10-09T07:09:03;16.70;99.90
52543;DHT22;38449;52.696;6.186;2023-10-09T07:11:36;16.70;99.90
52543;DHT22;38449;52.696;6.186;2023-10-09T07:14:13;16.60;99.90
52543;DHT22;38449;52.696;6.186;2023-10-09T07:17:04;16.70;99.90
52543;DHT22;38449;52.696;6.186;2023-10-09T07:19:42;16.70;99.90
52543;DHT22;38449;52.696;6.186;2023-10-09T07:22:09;16.80;99.90
52543;DHT22;38449;52.696;6.186;2023-10-09T07:24:49;16.80;99.90
52543;DHT22;38449;52.696;6.186;2023-10-09T07:27:23;16.80;99.90
52543;DHT22;38449;52.696;6.186;2023-10-09T07:30:08;16.90;99.90
52543;DHT22;38449;52.696;6.186;2023-10-09T07:33:04;16.90;99.90
52543;DHT22;38449;52.696;6.186;2023-10-09T07:35:38;16.90;99.90
52543;DHT22;38449;52.696;6.186;2023-10-09T07:38:15;17.00;99.90
52543;DHT22;38449;52.696;6.186;2023-10-09T07:40:46;17.00;99.90
52543;DHT22;38449;52.696;6.186;2023-10-09T07:43:30;16.90;99.90
52543;DHT22;38449;52.696;6.186;2023-10-09T07:46:06;17.00;99.90
52543;DHT22;38449;52.696;6.186;2023-10-09T07:48:55;17.10;99.90
52543;DHT22;38449;52.696;6.186;2023-10-09T07:51:23;17.00;99.90
52543;DHT22;38449;52.696;6.186;2023-10-09T07:53:58;17.10;99.90
52543;DHT22;38449;52.696;6.186;2023-10-09T07:56:37;17.10;99.90
52543;DHT22;38449;52.696;6.186;2023-10-09T07:59:16;17.10;99.90
52543;DHT22;38449;52.696;6.186;2023-10-09T08:01:48;17.20;99.90
52543;DHT22;38449;52.696;6.186;2023-10-09T08:04:31;17.20;99.90
52543;DHT22;38449;52.696;6.186;2023-10-09T08:07:07;17.20;99.90
52543;DHT22;38449;52.696;6.186;2023-10-09T08:09:45;17.10;99.90
52543;DHT22;38449;52.696;6.186;2023-10-09T08:12:15;17.10;99.90
52543;DHT22;38449;52.696;6.186;2023-10-09T08:15:03;17.20;99.90
52543;DHT22;38449;52.696;6.186;2023-10-09T08:17:47;17.20;99.90
52543;DHT22;38449;52.696;6.186;2023-10-09T08:20:30;17.20;99.90
52543;DHT22;38449;52.696;6.186;2023-10-09T08:23:15;17.40;99.90
52543;DHT22;38449;52.696;6.186;2023-10-09T08:26:01;17.30;99.90
52543;DHT22;38449;52.696;6.186;2023-10-09T08:28:44;17.30;99.90
52543;DHT22;38449;52.696;6.186;2023-10-09T08:31:19;17.50;99.90
52543;DHT22;38449;52.696;6.186;2023-10-09T08:34:00;17.30;99.90
52543;DHT22;38449;52.696;6.186;2023-10-09T08:36:28;17.50;99.90
52543;DHT22;38449;52.696;6.186;2023-10-09T08:38:55;17.50;99.90
52543;DHT22;38449;52.696;6.186;2023-10-09T08:41:25;17.50;99.90
52543;DHT22;38449;52.696;6.186;2023-10-09T08:43:57;17.60;99.90
52543;DHT22;38449;52.696;6.186;2023-10-09T08:46:25;17.50;99.90
52543;DHT22;38449;52.696;6.186;2023-10-09T08:48:56;17.50;99.90
52543;DHT22;38449;52.696;6.186;2023-10-09T08:51:24;17.50;99.90
52543;DHT22;38449;52.696;6.186;2023-10-09T08:53:52;17.60;99.90
52543;DHT22;38449;52.696;6.186;2023-10-09T08:56:20;17.60;99.90
52543;DHT22;38449;52.696;6.186;2023-10-09T08:58:55;17.50;99.90
52543;DHT22;38449;52.696;6.186;2023-10-09T09:01:22;17.70;99.90
52543;DHT22;38449;52.696;6.186;2023-10-09T09:03:52;17.60;99.90
52543;DHT22;38449;52.696;6.186;2023-10-09T09:06:21;17.60;99.90
52543;DHT22;38449;52.696;6.186;2023-10-09T09:08:50;17.60;99.90
52543;DHT22;38449;52.696;6.186;2023-10-09T09:11:21;17.60;99.90
52543;DHT22;38449;52.696;6.186;2023-10-09T09:16:24;17.50;99.90
52543;DHT22;38449;52.696;6.186;2023-10-09T09:18:59;17.60;99.90
52543;DHT22;38449;52.696;6.186;2023-10-09T09:21:32;17.50;99.90
52543;DHT22;38449;52.696;6.186;2023-10-09T09:24:06;17.50;99.90
52543;DHT22;38449;52.696;6.186;2023-10-09T09:26:42;17.60;99.90
52543;DHT22;38449;52.696;6.186;2023-10-09T09:29:12;17.50;99.90
52543;DHT22;38449;52.696;6.186;2023-10-09T09:31:57;17.60;99.90
52543;DHT22;38449;52.696;6.186;2023-10-09T09:34:46;17.70;99.90
52543;DHT22;38449;52.696;6.186;2023-10-09T09:37:21;17.50;99.90
52543;DHT22;38449;52.696;6.186;2023-10-09T09:39:48;17.70;99.90
52543;DHT22;38449;52.696;6.186;2023-10-09T09:42:18;17.80;99.90
52543;DHT22;38449;52.696;6.186;2023-10-09T09:44:55;17.70;99.90
52543;DHT22;38449;52.696;6.186;2023-10-09T09:47:21;17.80;99.90
52543;DHT22;38449;52.696;6.186;2023-10-09T09:49:54;17.80;99.90
52543;DHT22;38449;52.696;6.186;2023-10-09T09:52:30;17.70;99.90
52543;DHT22;38449;52.696;6.186;2023-10-09T09:55:06;17.80;99.90
52543;DHT22;38449;52.696;6.186;2023-10-09T09:57:40;17.70;99.90
52543;DHT22;38449;52.696;6.186;2023-10-09T10:00:09;17.70;99.90
52543;DHT22;38449;52.696;6.186;2023-10-09T10:02:56;17.80;99.90
52543;DHT22;38449;52.696;6.186;2023-10-09T10:05:25;17.70;99.90
52543;DHT22;38449;52.696;6.186;2023-10-09T10:07:59;17.70;99.90
52543;DHT22;38449;52.696;6.186;2023-10-09T10:10:42;17.70;99.90
52543;DHT22;38449;52.696;6.186;2023-10-09T10:13:54;17.70;99.90
52543;DHT22;38449;52.696;6.186;2023-10-09T10:16:25;17.90;99.90
52543;DHT22;38449;52.696;6.186;2023-10-09T10:19:01;17.80;99.90
52543;DHT22;38449;52.696;6.186;2023-10-09T10:21:37;17.90;99.90
52543;DHT22;38449;52.696;6.186;2023-10-09T10:35:19;18.20;99.90
52543;DHT22;38449;52.696;6.186;2023-10-09T10:37:47;18.30;99.90
52543;DHT22;38449;52.696;6.186;2023-10-09T10:40:35;18.40;99.90
52543;DHT22;38449;52.696;6.186;2023-10-09T10:43:05;18.30;99.90
52543;DHT22;38449;52.696;6.186;2023-10-09T10:45:45;18.40;99.90
52543;DHT22;38449;52.696;6.186;2023-10-09T10:48:12;18.50;99.90
52543;DHT22;38449;52.696;6.186;2023-10-09T10:50:57;18.50;99.90
52543;DHT22;38449;52.696;6.186;2023-10-09T10:53:23;18.70;99.90
52543;DHT22;38449;52.696;6.186;2023-10-09T10:55:58;18.60;99.90
52543;DHT22;38449;52.696;6.186;2023-10-09T10:58:52;18.70;99.90
52543;DHT22;38449;52.696;6.186;2023-10-09T11:01:31;18.60;99.90
52543;DHT22;38449;52.696;6.186;2023-10-09T11:04:17;18.60;99.90
52543;DHT22;38449;52.696;6.186;2023-10-09T11:06:59;18.80;99.90
52543;DHT22;38449;52.696;6.186;2023-10-09T11:09:57;18.80;99.90
52543;DHT22;38449;52.696;6.186;2023-10-09T11:12:45;18.70;99.90
52543;DHT22;38449;52.696;6.186;2023-10-09T11:15:33;18.70;99.90
52543;DHT22;38449;52.696;6.186;2023-10-09T11:18:14;18.70;99.90
52543;DHT22;38449;52.696;6.186;2023-10-09T11:20:54;18.80;99.90
52543;DHT22;38449;52.696;6.186;2023-10-09T11:23:23;18.80;99.90
52543;DHT22;38449;52.696;6.186;2023-10-09T11:26:03;18.70;99.90
52543;DHT22;38449;52.696;6.186;2023-10-09T11:31:59;18.60;99.90
52543;DHT22;38449;52.696;6.186;2023-10-09T11:34:27;18.60;99.90
52543;DHT22;38449;52.696;6.186;2023-10-09T11:37:14;18.60;99.90
52543;DHT22;38449;52.696;6.186;2023-10-09T11:39:42;18.60;99.90
52543;DHT22;38449;52.696;6.186;2023-10-09T11:42:20;18.80;99.90
52543;DHT22;38449;52.696;6.186;2023-10-09T11:45:25;18.80;99.90
52543;DHT22;38449;52.696;6.186;2023-10-09T11:47:57;19.10;99.90
52543;DHT22;38449;52.696;6.186;2023-10-09T11:50:46;19.10;99.90
52543;DHT22;38449;52.696;6.186;2023-10-09T11:53:20;19.30;99.90
52543;DHT22;38449;52.696;6.186;2023-10-09T11:55:49;19.30;99.90
52543;DHT22;38449;52.696;6.186;2023-10-09T11:58:17;19.40;99.90
52543;DHT22;38449;52.696;6.186;2023-10-09T12:00:57;19.60;99.90
52543;DHT22;38449;52.696;6.186;2023-10-09T12:03:29;19.70;99.90
52543;DHT22;38449;52.696;6.186;2023-10-09T12:05:57;19.80;99.90
52543;DHT22;38449;52.696;6.186;2023-10-09T12:08:24;19.70;99.90
52543;DHT22;38449;52.696;6.186;2023-10-09T12:10:55;19.70;99.90
52543;DHT22;38449;52.696;6.186;2023-10-09T12:13:25;19.80;99.90
52543;DHT22;38449;52.696;6.186;2023-10-09T12:15:52;19.80;99.90
52543;DHT22;38449;52.696;6.186;2023-10-09T12:18:22;19.80;99.90
52543;DHT22;38449;52.696;6.186;2023-10-09T12:20:51;19.70;99.90
52543;DHT22;38449;52.696;6.186;2023-10-09T12:23:22;19.70;99.90
52543;DHT22;38449;52.696;6.186;2023-10-09T12:25:49;19.60;99.90
52543;DHT22;38449;52.696;6.186;2023-10-09T12:28:16;19.50;99.90
52543;DHT22;38449;52.696;6.186;2023-10-09T12:30:47;19.60;99.90
52543;DHT22;38449;52.696;6.186;2023-10-09T12:33:20;19.60;99.90
52543;DHT22;38449;52.696;6.186;2023-10-09T12:35:54;19.70;99.90
52543;DHT22;38449;52.696;6.186;2023-10-09T12:38:28;19.80;99.90
52543;DHT22;38449;52.696;6.186;2023-10-09T12:41:05;19.70;99.90
52543;DHT22;38449;52.696;6.186;2023-10-09T12:43:48;19.80;99.90
52543;DHT22;38449;52.696;6.186;2023-10-09T12:46:14;19.80;99.90
52543;DHT22;38449;52.696;6.186;2023-10-09T12:48:44;19.90;99.90
52543;DHT22;38449;52.696;6.186;2023-10-09T12:51:14;19.90;99.90
52543;DHT22;38449;52.696;6.186;2023-10-09T12:53:47;19.80;99.90
52543;DHT22;38449;52.696;6.186;2023-10-09T12:56:23;19.80;99.90
52543;DHT22;38449;52.696;6.186;2023-10-09T12:59:02;19.70;99.90
52543;DHT22;38449;52.696;6.186;2023-10-09T13:01:31;19.70;99.90
52543;DHT22;38449;52.696;6.186;2023-10-09T13:04:11;19.70;99.90
52543;DHT22;38449;52.696;6.186;2023-10-09T13:06:38;19.60;99.90
52543;DHT22;38449;52.696;6.186;2023-10-09T13:09:11;19.60;99.90
52543;DHT22;38449;52.696;6.186;2023-10-09T13:11:37;19.60;99.90
52543;DHT22;38449;52.696;6.186;2023-10-09T13:14:03;19.50;99.90
52543;DHT22;38449;52.696;6.186;2023-10-09T13:16:37;19.50;99.90
52543;DHT22;38449;52.696;6.186;2023-10-09T13:19:04;19.40;99.90
52543;DHT22;38449;52.696;6.186;2023-10-09T13:21:38;19.40;99.90
52543;DHT22;38449;52.696;6.186;2023-10-09T13:24:08;19.40;99.90
52543;DHT22;38449;52.696;6.186;2023-10-09T13:26:42;19.40;99.90
52543;DHT22;38449;52.696;6.186;2023-10-09T13:29:12;19.30;99.90
52543;DHT22;38449;52.696;6.186;2023-10-09T13:31:39;19.30;99.90
52543;DHT22;38449;52.696;6.186;2023-10-09T13:34:12;19.10;99.90
52543;DHT22;38449;52.696;6.186;2023-10-09T13:36:44;19.20;99.90
52543;DHT22;38449;52.696;6.186;2023-10-09T13:39:19;19.10;99.90
52543;DHT22;38449;52.696;6.186;2023-10-09T13:41:59;19.00;99.90
52543;DHT22;38449;52.696;6.186;2023-10-09T13:44:26;19.10;99.90
52543;DHT22;38449;52.696;6.186;2023-10-09T13:47:00;19.10;99.90
52543;DHT22;38449;52.696;6.186;2023-10-09T13:49:27;19.00;99.90
52543;DHT22;38449;52.696;6.186;2023-10-09T13:51:57;19.00;99.90
52543;DHT22;38449;52.696;6.186;2023-10-09T13:54:23;19.00;99.90
52543;DHT22;38449;52.696;6.186;2023-10-09T13:57:02;19.00;99.90
52543;DHT22;38449;52.696;6.186;2023-10-09T13:59:33;19.00;99.90
52543;DHT22;38449;52.696;6.186;2023-10-09T14:02:01;18.90;99.90
52543;DHT22;38449;52.696;6.186;2023-10-09T14:04:35;18.90;99.90
52543;DHT22;38449;52.696;6.186;2023-10-09T14:07:02;18.90;99.90
52543;DHT22;38449;52.696;6.186;2023-10-09T14:09:31;18.90;99.90
52543;DHT22;38449;52.696;6.186;2023-10-09T14:11:58;18.80;99.90
52543;DHT22;38449;52.696;6.186;2023-10-09T14:14:42;18.90;99.90
52543;DHT22;38449;52.696;6.186;2023-10-09T14:17:15;18.90;99.90
52543;DHT22;38449;52.696;6.186;2023-10-09T14:19:47;19.00;99.90
52543;DHT22;38449;52.696;6.186;2023-10-09T14:22:14;19.00;99.90
52543;DHT22;38449;52.696;6.186;2023-10-09T14:24:44;19.00;99.90
52543;DHT22;38449;52.696;6.186;2023-10-09T14:27:12;19.00;99.90
52543;DHT22;38449;52.696;6.186;2023-10-09T14:29:53;18.90;99.90
52543;DHT22;38449;52.696;6.186;2023-10-09T14:32:26;19.00;99.90
52543;DHT22;38449;52.696;6.186;2023-10-09T14:35:00;19.00;99.90
52543;DHT22;38449;52.696;6.186;2023-10-09T14:37:37;18.90;99.90
52543;DHT22;38449;52.696;6.186;2023-10-09T14:40:06;19.00;99.90
52543;DHT22;38449;52.696;6.186;2023-10-09T14:42:39;18.90;99.90
52543;DHT22;38449;52.696;6.186;2023-10-09T14:45:10;18.90;99.90
52543;DHT22;38449;52.696;6.186;2023-10-09T14:47:42;18.80;99.90
52543;DHT22;38449;52.696;6.186;2023-10-09T14:50:08;18.80;99.90
52543;DHT22;38449;52.696;6.186;2023-10-09T14:52:36;18.80;99.90
52543;DHT22;38449;52.696;6.186;2023-10-09T14:55:06;18.80;99.90
52543;DHT22;38449;52.696;6.186;2023-10-09T14:57:32;18.80;99.90
52543;DHT22;38449;52.696;6.186;2023-10-09T15:00:03;18.90;99.90
52543;DHT22;38449;52.696;6.186;2023-10-09T15:02:40;18.90;99.90
52543;DHT22;38449;52.696;6.186;2023-10-09T15:05:06;18.80;99.90
52543;DHT22;38449;52.696;6.186;2023-10-09T15:07:37;18.80;99.90
52543;DHT22;38449;52.696;6.186;2023-10-09T15:10:05;18.80;99.90
52543;DHT22;38449;52.696;6.186;2023-10-09T15:12:32;18.80;99.90
52543;DHT22;38449;52.696;6.186;2023-10-09T15:15:00;18.80;99.90
52543;DHT22;38449;52.696;6.186;2023-10-09T15:17:27;18.80;99.90
52543;DHT22;38449;52.696;6.186;2023-10-09T15:19:53;18.70;99.90
52543;DHT22;38449;52.696;6.186;2023-10-09T15:22:22;18.60;99.90
52543;DHT22;38449;52.696;6.186;2023-10-09T15:24:49;18.60;99.90
52543;DHT22;38449;52.696;6.186;2023-10-09T15:27:15;18.50;99.90
52543;DHT22;38449;52.696;6.186;2023-10-09T15:29:41;18.50;99.90
52543;DHT22;38449;52.696;6.186;2023-10-09T15:32:10;18.50;99.90
52543;DHT22;38449;52.696;6.186;2023-10-09T15:34:48;18.40;99.90
52543;DHT22;38449;52.696;6.186;2023-10-09T15:37:15;18.40;99.90
52543;DHT22;38449;52.696;6.186;2023-10-09T15:39:43;18.40;99.90
52543;DHT22;38449;52.696;6.186;2023-10-09T15:42:10;18.40;99.90
52543;DHT22;38449;52.696;6.186;2023-10-09T15:44:39;18.40;99.90
52543;DHT22;38449;52.696;6.186;2023-10-09T15:47:10;18.40;99.90
52543;DHT22;38449;52.696;6.186;2023-10-09T15:49:38;18.40;99.90
52543;DHT22;38449;52.696;6.186;2023-10-09T15:52:07;18.30;99.90
52543;DHT22;38449;52.696;6.186;2023-10-09T15:54:35;18.40;99.90
52543;DHT22;38449;52.696;6.186;2023-10-09T15:57:01;18.40;99.90
52543;DHT22;38449;52.696;6.186;2023-10-09T15:59:27;18.40;99.90
52543;DHT22;38449;52.696;6.186;2023-10-09T16:01:53;18.40;99.90
52543;DHT22;38449;52.696;6.186;2023-10-09T16:04:23;18.30;99.90
52543;DHT22;38449;52.696;6.186;2023-10-09T16:06:50;18.30;99.90
52543;DHT22;38449;52.696;6.186;2023-10-09T16:09:18;18.20;99.90
52543;DHT22;38449;52.696;6.186;2023-10-09T16:11:47;18.20;99.90
52543;DHT22;38449;52.696;6.186;2023-10-09T16:14:13;18.30;99.90
52543;DHT22;38449;52.696;6.186;2023-10-09T16:16:41;18.40;99.90
52543;DHT22;38449;52.696;6.186;2023-10-09T16:19:09;18.40;99.90
52543;DHT22;38449;52.696;6.186;2023-10-09T16:21:39;18.40;99.90
52543;DHT22;38449;52.696;6.186;2023-10-09T16:24:06;18.50;99.90
52543;DHT22;38449;52.696;6.186;2023-10-09T16:26:35;18.40;99.90
52543;DHT22;38449;52.696;6.186;2023-10-09T16:29:11;18.40;99.90